sensor_id;sensor_type;location;lat;lon;timestamp;temperature;humidity
35607;DHT22;21729;58.392;15.656;2022-12-11T00:01:16;-5.70;1.00
35607;DHT22;21729;58.392;15.656;2022-12-11T00:03:44;-5.70;1.00
35607;DHT22;21729;58.392;15.656;2022-12-11T00:06:13;-5.70;99.90
35607;DHT22;21729;58.392;15.656;2022-12-11T00:08:40;-5.60;99.90
35607;DHT22;21729;58.392;15.656;2022-12-11T00:11:08;-5.60;99.90
35607;DHT22;21729;58.392;15.656;2022-12-11T00:13:38;-5.60;99.90
35607;DHT22;21729;58.392;15.656;2022-12-11T00:16:06;-5.60;99.90
35607;DHT22;21729;58.392;15.656;2022-12-11T00:18:33;-5.60;99.90
35607;DHT22;21729;58.392;15.656;2022-12-11T00:21:02;-5.60;99.90
35607;DHT22;21729;58.392;15.656;2022-12-11T00:23:29;-5.60;99.90
35607;DHT22;21729;58.392;15.656;2022-12-11T00:25:57;-5.60;99.90
35607;DHT22;21729;58.392;15.656;2022-12-11T00:28:24;-5.60;99.90
35607;DHT22;21729;58.392;15.656;2022-12-11T00:30:52;-5.50;99.90
35607;DHT22;21729;58.392;15.656;2022-12-11T00:33:20;-5.60;99.90
35607;DHT22;21729;58.392;15.656;2022-12-11T00:35:47;-5.50;99.90
35607;DHT22;21729;58.392;15.656;2022-12-11T00:38:16;-5.50;99.90
35607;DHT22;21729;58.392;15.656;2022-12-11T00:40:44;-5.50;99.90
35607;DHT22;21729;58.392;15.656;2022-12-11T00:43:11;-5.40;99.90
35607;DHT22;21729;58.392;15.656;2022-12-11T00:45:40;-5.40;99.90
35607;DHT22;21729;58.392;15.656;2022-12-11T00:48:10;-5.40;99.90
35607;DHT22;21729;58.392;15.656;2022-12-11T00:50:38;-5.40;99.90
35607;DHT22;21729;58.392;15.656;2022-12-11T00:53:06;-5.30;99.90
35607;DHT22;21729;58.392;15.656;2022-12-11T00:55:36;-5.40;99.90
35607;DHT22;21729;58.392;15.656;2022-12-11T00:58:04;-5.40;99.90
35607;DHT22;21729;58.392;15.656;2022-12-11T01:00:31;-5.40;99.90
35607;DHT22;21729;58.392;15.656;2022-12-11T01:02:58;-5.40;99.90
35607;DHT22;21729;58.392;15.656;2022-12-11T01:05:26;-5.10;99.90
35607;DHT22;21729;58.392;15.656;2022-12-11T01:07:53;-5.40;99.90
35607;DHT22;21729;58.392;15.656;2022-12-11T01:10:21;-5.30;99.90
35607;DHT22;21729;58.392;15.656;2022-12-11T01:12:51;-5.20;99.90
35607;DHT22;21729;58.392;15.656;2022-12-11T01:15:18;-5.20;99.90
35607;DHT22;21729;58.392;15.656;2022-12-11T01:17:45;-5.10;99.90
35607;DHT22;21729;58.392;15.656;2022-12-11T01:20:13;-5.10;99.90
35607;DHT22;21729;58.392;15.656;2022-12-11T01:22:41;-5.10;99.90
35607;DHT22;21729;58.392;15.656;2022-12-11T01:25:09;-5.20;99.90
35607;DHT22;21729;58.392;15.656;2022-12-11T01:27:36;-5.10;99.90
35607;DHT22;21729;58.392;15.656;2022-12-11T01:30:05;-5.30;99.90
35607;DHT22;21729;58.392;15.656;2022-12-11T01:32:33;-5.20;99.90
35607;DHT22;21729;58.392;15.656;2022-12-11T01:35:01;-5.20;99.90
35607;DHT22;21729;58.392;15.656;2022-12-11T01:37:29;-5.20;99.90
35607;DHT22;21729;58.392;15.656;2022-12-11T01:39:58;-5.20;99.90
35607;DHT22;21729;58.392;15.656;2022-12-11T01:42:26;-5.20;99.90
35607;DHT22;21729;58.392;15.656;2022-12-11T01:45:25;-5.30;99.90
35607;DHT22;21729;58.392;15.656;2022-12-11T01:47:56;-5.30;99.90
35607;DHT22;21729;58.392;15.656;2022-12-11T01:50:25;-5.30;99.90
35607;DHT22;21729;58.392;15.656;2022-12-11T01:52:53;-5.30;99.90
35607;DHT22;21729;58.392;15.656;2022-12-11T01:55:22;-5.30;99.90
35607;DHT22;21729;58.392;15.656;2022-12-11T01:57:50;-5.20;99.90
35607;DHT22;21729;58.392;15.656;2022-12-11T02:00:18;-5.30;99.90
35607;DHT22;21729;58.392;15.656;2022-12-11T02:02:46;-5.20;99.90
35607;DHT22;21729;58.392;15.656;2022-12-11T02:05:13;-5.30;99.90
35607;DHT22;21729;58.392;15.656;2022-12-11T02:07:42;-5.20;99.90
35607;DHT22;21729;58.392;15.656;2022-12-11T02:10:12;-5.20;99.90
35607;DHT22;21729;58.392;15.656;2022-12-11T02:12:51;-5.20;99.90
35607;DHT22;21729;58.392;15.656;2022-12-11T02:15:24;-5.20;99.90
35607;DHT22;21729;58.392;15.656;2022-12-11T02:17:59;-5.20;99.90
35607;DHT22;21729;58.392;15.656;2022-12-11T02:20:35;-5.20;99.90
35607;DHT22;21729;58.392;15.656;2022-12-11T02:23:30;-5.30;99.90
35607;DHT22;21729;58.392;15.656;2022-12-11T02:26:11;-5.20;99.90
35607;DHT22;21729;58.392;15.656;2022-12-11T02:28:44;-5.20;99.90
35607;DHT22;21729;58.392;15.656;2022-12-11T02:31:16;-5.20;99.90
35607;DHT22;21729;58.392;15.656;2022-12-11T02:33:51;-5.20;99.90
35607;DHT22;21729;58.392;15.656;2022-12-11T02:36:21;-5.20;99.90
35607;DHT22;21729;58.392;15.656;2022-12-11T02:38:52;-5.20;99.90
35607;DHT22;21729;58.392;15.656;2022-12-11T02:41:22;-5.10;99.90
35607;DHT22;21729;58.392;15.656;2022-12-11T02:43:52;-5.10;99.90
35607;DHT22;21729;58.392;15.656;2022-12-11T02:46:24;-5.20;99.90
35607;DHT22;21729;58.392;15.656;2022-12-11T02:48:52;-5.20;99.90
35607;DHT22;21729;58.392;15.656;2022-12-11T02:51:24;-5.20;99.90
35607;DHT22;21729;58.392;15.656;2022-12-11T02:53:56;-5.10;99.90
35607;DHT22;21729;58.392;15.656;2022-12-11T02:56:27;-5.20;99.90
35607;DHT22;21729;58.392;15.656;2022-12-11T02:59:00;-5.10;99.90
35607;DHT22;21729;58.392;15.656;2022-12-11T03:01:29;-5.20;99.90
35607;DHT22;21729;58.392;15.656;2022-12-11T03:03:57;-5.20;99.90
35607;DHT22;21729;58.392;15.656;2022-12-11T03:06:35;-5.20;99.90
35607;DHT22;21729;58.392;15.656;2022-12-11T03:09:03;-5.20;99.90
35607;DHT22;21729;58.392;15.656;2022-12-11T03:11:30;-5.20;99.90
35607;DHT22;21729;58.392;15.656;2022-12-11T03:13:59;-5.20;99.90
35607;DHT22;21729;58.392;15.656;2022-12-11T03:16:32;-5.20;99.90
35607;DHT22;21729;58.392;15.656;2022-12-11T03:19:06;-5.10;99.90
35607;DHT22;21729;58.392;15.656;2022-12-11T03:21:41;-5.20;99.90
35607;DHT22;21729;58.392;15.656;2022-12-11T03:24:14;-5.20;99.90
35607;DHT22;21729;58.392;15.656;2022-12-11T03:26:48;-5.30;99.90
35607;DHT22;21729;58.392;15.656;2022-12-11T03:29:20;-5.20;99.90
35607;DHT22;21729;58.392;15.656;2022-12-11T03:31:53;-5.10;99.90
35607;DHT22;21729;58.392;15.656;2022-12-11T03:34:26;-5.20;99.90
35607;DHT22;21729;58.392;15.656;2022-12-11T03:36:55;-5.20;99.90
35607;DHT22;21729;58.392;15.656;2022-12-11T03:39:26;-5.20;99.90
35607;DHT22;21729;58.392;15.656;2022-12-11T03:41:57;-5.10;99.90
35607;DHT22;21729;58.392;15.656;2022-12-11T03:44:27;-5.10;99.90
35607;DHT22;21729;58.392;15.656;2022-12-11T03:46:56;-5.10;99.90
35607;DHT22;21729;58.392;15.656;2022-12-11T03:49:26;-5.20;99.90
35607;DHT22;21729;58.392;15.656;2022-12-11T03:51:56;-5.20;99.90
35607;DHT22;21729;58.392;15.656;2022-12-11T03:54:26;-4.90;99.90
35607;DHT22;21729;58.392;15.656;2022-12-11T03:56:55;-5.20;99.90
35607;DHT22;21729;58.392;15.656;2022-12-11T03:59:23;-5.10;99.90
35607;DHT22;21729;58.392;15.656;2022-12-11T04:01:52;-5.20;99.90
35607;DHT22;21729;58.392;15.656;2022-12-11T04:04:19;-5.20;99.90
35607;DHT22;21729;58.392;15.656;2022-12-11T04:06:46;-5.20;99.90
35607;DHT22;21729;58.392;15.656;2022-12-11T04:09:14;-5.20;99.90
35607;DHT22;21729;58.392;15.656;2022-12-11T04:11:41;-5.20;99.90
35607;DHT22;21729;58.392;15.656;2022-12-11T04:14:10;-5.20;99.90
35607;DHT22;21729;58.392;15.656;2022-12-11T04:16:57;-5.20;99.90
35607;DHT22;21729;58.392;15.656;2022-12-11T04:19:25;-5.20;99.90
35607;DHT22;21729;58.392;15.656;2022-12-11T04:22:10;-5.20;99.90
35607;DHT22;21729;58.392;15.656;2022-12-11T04:24:55;-5.50;99.90
35607;DHT22;21729;58.392;15.656;2022-12-11T04:27:22;-5.20;99.90
35607;DHT22;21729;58.392;15.656;2022-12-11T04:30:10;-5.20;99.90
35607;DHT22;21729;58.392;15.656;2022-12-11T04:32:40;-5.40;99.90
35607;DHT22;21729;58.392;15.656;2022-12-11T04:35:08;-5.20;99.90
35607;DHT22;21729;58.392;15.656;2022-12-11T04:37:36;-5.20;99.90
35607;DHT22;21729;58.392;15.656;2022-12-11T04:40:04;-5.30;99.90
35607;DHT22;21729;58.392;15.656;2022-12-11T04:42:32;-5.20;99.90
35607;DHT22;21729;58.392;15.656;2022-12-11T04:44:59;-5.30;99.90
35607;DHT22;21729;58.392;15.656;2022-12-11T04:47:26;-5.30;99.90
35607;DHT22;21729;58.392;15.656;2022-12-11T04:49:55;-5.40;99.90
35607;DHT22;21729;58.392;15.656;2022-12-11T04:52:22;-5.40;99.90
35607;DHT22;21729;58.392;15.656;2022-12-11T04:54:49;-5.40;99.90
35607;DHT22;21729;58.392;15.656;2022-12-11T04:57:17;-5.50;99.90
35607;DHT22;21729;58.392;15.656;2022-12-11T04:59:45;-5.40;99.90
35607;DHT22;21729;58.392;15.656;2022-12-11T05:02:12;-5.40;99.90
35607;DHT22;21729;58.392;15.656;2022-12-11T05:04:40;-5.30;99.90
35607;DHT22;21729;58.392;15.656;2022-12-11T05:07:09;-5.40;99.90
35607;DHT22;21729;58.392;15.656;2022-12-11T05:09:36;-5.40;99.90
35607;DHT22;21729;58.392;15.656;2022-12-11T05:12:03;-5.40;99.90
35607;DHT22;21729;58.392;15.656;2022-12-11T05:14:30;-5.40;99.90
35607;DHT22;21729;58.392;15.656;2022-12-11T05:16:58;-5.40;99.90
35607;DHT22;21729;58.392;15.656;2022-12-11T05:19:25;-5.40;99.90
35607;DHT22;21729;58.392;15.656;2022-12-11T05:21:53;-5.40;99.90
35607;DHT22;21729;58.392;15.656;2022-12-11T05:24:21;-5.50;99.90
35607;DHT22;21729;58.392;15.656;2022-12-11T05:26:48;-5.40;99.90
35607;DHT22;21729;58.392;15.656;2022-12-11T05:29:15;-5.40;99.90
35607;DHT22;21729;58.392;15.656;2022-12-11T05:31:42;-5.40;99.90
35607;DHT22;21729;58.392;15.656;2022-12-11T05:34:09;-5.50;99.90
35607;DHT22;21729;58.392;15.656;2022-12-11T05:36:36;-5.50;99.90
35607;DHT22;21729;58.392;15.656;2022-12-11T05:39:04;-5.50;99.90
35607;DHT22;21729;58.392;15.656;2022-12-11T05:41:32;-5.30;99.90
35607;DHT22;21729;58.392;15.656;2022-12-11T05:43:59;-5.50;99.90
35607;DHT22;21729;58.392;15.656;2022-12-11T05:46:28;-5.40;99.90
35607;DHT22;21729;58.392;15.656;2022-12-11T05:48:58;-5.40;99.90
35607;DHT22;21729;58.392;15.656;2022-12-11T05:51:26;-5.40;99.90
35607;DHT22;21729;58.392;15.656;2022-12-11T05:53:56;-5.40;99.90
35607;DHT22;21729;58.392;15.656;2022-12-11T05:56:25;-5.30;99.90
35607;DHT22;21729;58.392;15.656;2022-12-11T05:58:55;-5.40;99.90
35607;DHT22;21729;58.392;15.656;2022-12-11T06:01:24;-5.30;99.90
35607;DHT22;21729;58.392;15.656;2022-12-11T06:03:52;-5.30;99.90
35607;DHT22;21729;58.392;15.656;2022-12-11T06:06:20;-5.30;99.90
35607;DHT22;21729;58.392;15.656;2022-12-11T06:08:49;-5.20;99.90
35607;DHT22;21729;58.392;15.656;2022-12-11T06:11:16;-5.20;99.90
35607;DHT22;21729;58.392;15.656;2022-12-11T06:13:43;-5.20;99.90
35607;DHT22;21729;58.392;15.656;2022-12-11T06:16:12;-5.20;99.90
35607;DHT22;21729;58.392;15.656;2022-12-11T06:18:41;-5.20;99.90
35607;DHT22;21729;58.392;15.656;2022-12-11T06:21:12;-5.20;99.90
35607;DHT22;21729;58.392;15.656;2022-12-11T06:23:40;-5.20;99.90
35607;DHT22;21729;58.392;15.656;2022-12-11T06:26:08;-5.20;99.90
35607;DHT22;21729;58.392;15.656;2022-12-11T06:28:35;-5.10;99.90
35607;DHT22;21729;58.392;15.656;2022-12-11T06:31:03;-5.10;99.90
35607;DHT22;21729;58.392;15.656;2022-12-11T06:33:32;-5.10;99.90
35607;DHT22;21729;58.392;15.656;2022-12-11T06:36:00;-5.00;99.90
35607;DHT22;21729;58.392;15.656;2022-12-11T06:38:28;-5.00;99.90
35607;DHT22;21729;58.392;15.656;2022-12-11T06:40:56;-5.10;99.90
35607;DHT22;21729;58.392;15.656;2022-12-11T06:43:23;-5.10;99.90
35607;DHT22;21729;58.392;15.656;2022-12-11T06:45:51;-5.10;99.90
35607;DHT22;21729;58.392;15.656;2022-12-11T06:48:19;-5.20;99.90
35607;DHT22;21729;58.392;15.656;2022-12-11T06:50:47;-5.20;99.90
35607;DHT22;21729;58.392;15.656;2022-12-11T06:53:15;-5.20;99.90
35607;DHT22;21729;58.392;15.656;2022-12-11T06:55:42;-5.20;99.90
35607;DHT22;21729;58.392;15.656;2022-12-11T06:58:09;-5.10;99.90
35607;DHT22;21729;58.392;15.656;2022-12-11T07:00:37;-5.10;99.90
35607;DHT22;21729;58.392;15.656;2022-12-11T07:03:05;-5.10;99.90
35607;DHT22;21729;58.392;15.656;2022-12-11T07:05:32;-5.10;99.90
35607;DHT22;21729;58.392;15.656;2022-12-11T07:08:01;-5.00;99.90
35607;DHT22;21729;58.392;15.656;2022-12-11T07:10:28;-5.00;99.90
35607;DHT22;21729;58.392;15.656;2022-12-11T07:12:55;-4.90;99.90
35607;DHT22;21729;58.392;15.656;2022-12-11T07:15:22;-4.90;99.90
35607;DHT22;21729;58.392;15.656;2022-12-11T07:17:49;-5.00;99.90
35607;DHT22;21729;58.392;15.656;2022-12-11T07:20:26;-5.00;99.90
35607;DHT22;21729;58.392;15.656;2022-12-11T07:22:53;-5.10;99.90
35607;DHT22;21729;58.392;15.656;2022-12-11T07:25:22;-5.00;99.90
35607;DHT22;21729;58.392;15.656;2022-12-11T07:27:49;-5.00;99.90
35607;DHT22;21729;58.392;15.656;2022-12-11T07:30:16;-5.00;99.90
35607;DHT22;21729;58.392;15.656;2022-12-11T07:32:44;-5.00;99.90
35607;DHT22;21729;58.392;15.656;2022-12-11T07:35:11;-5.00;99.90
35607;DHT22;21729;58.392;15.656;2022-12-11T07:37:39;-5.10;99.90
35607;DHT22;21729;58.392;15.656;2022-12-11T07:40:11;-5.10;99.90
35607;DHT22;21729;58.392;15.656;2022-12-11T07:42:40;-5.10;99.90
35607;DHT22;21729;58.392;15.656;2022-12-11T07:45:07;-5.10;99.90
35607;DHT22;21729;58.392;15.656;2022-12-11T07:47:35;-5.10;99.90
35607;DHT22;21729;58.392;15.656;2022-12-11T07:50:02;-5.20;99.90
35607;DHT22;21729;58.392;15.656;2022-12-11T07:52:32;-5.10;99.90
35607;DHT22;21729;58.392;15.656;2022-12-11T07:55:00;-5.10;99.90
35607;DHT22;21729;58.392;15.656;2022-12-11T07:57:27;-5.10;99.90
35607;DHT22;21729;58.392;15.656;2022-12-11T07:59:56;-5.20;99.90
35607;DHT22;21729;58.392;15.656;2022-12-11T08:02:23;-5.20;99.90
35607;DHT22;21729;58.392;15.656;2022-12-11T08:04:50;-5.10;99.90
35607;DHT22;21729;58.392;15.656;2022-12-11T08:07:18;-5.10;99.90
35607;DHT22;21729;58.392;15.656;2022-12-11T08:09:45;-5.10;99.90
35607;DHT22;21729;58.392;15.656;2022-12-11T08:12:12;-5.10;99.90
35607;DHT22;21729;58.392;15.656;2022-12-11T08:14:39;-5.10;99.90
35607;DHT22;21729;58.392;15.656;2022-12-11T08:17:07;-5.00;99.90
35607;DHT22;21729;58.392;15.656;2022-12-11T08:19:35;-5.10;99.90
35607;DHT22;21729;58.392;15.656;2022-12-11T08:22:03;-5.00;99.90
35607;DHT22;21729;58.392;15.656;2022-12-11T08:24:30;-5.00;99.90
35607;DHT22;21729;58.392;15.656;2022-12-11T08:26:57;-5.00;99.90
35607;DHT22;21729;58.392;15.656;2022-12-11T08:29:25;-5.10;99.90
35607;DHT22;21729;58.392;15.656;2022-12-11T08:31:52;-5.10;99.90
35607;DHT22;21729;58.392;15.656;2022-12-11T08:34:21;-5.00;99.90
35607;DHT22;21729;58.392;15.656;2022-12-11T08:36:48;-5.00;99.90
35607;DHT22;21729;58.392;15.656;2022-12-11T08:39:18;-5.00;99.90
35607;DHT22;21729;58.392;15.656;2022-12-11T08:41:45;-5.00;99.90
35607;DHT22;21729;58.392;15.656;2022-12-11T08:44:12;-5.00;99.90
35607;DHT22;21729;58.392;15.656;2022-12-11T08:46:39;-5.00;99.90
35607;DHT22;21729;58.392;15.656;2022-12-11T08:49:08;-5.00;99.90
35607;DHT22;21729;58.392;15.656;2022-12-11T08:51:39;-5.00;99.90
35607;DHT22;21729;58.392;15.656;2022-12-11T08:54:08;-5.00;99.90
35607;DHT22;21729;58.392;15.656;2022-12-11T08:56:35;-5.00;99.90
35607;DHT22;21729;58.392;15.656;2022-12-11T08:59:02;-4.90;99.90
35607;DHT22;21729;58.392;15.656;2022-12-11T09:01:30;-4.90;99.90
35607;DHT22;21729;58.392;15.656;2022-12-11T09:03:58;-4.90;99.90
35607;DHT22;21729;58.392;15.656;2022-12-11T09:06:26;-5.00;99.90
35607;DHT22;21729;58.392;15.656;2022-12-11T09:08:58;-4.80;99.90
35607;DHT22;21729;58.392;15.656;2022-12-11T09:11:27;-4.90;99.90
35607;DHT22;21729;58.392;15.656;2022-12-11T09:13:55;-4.90;99.90
35607;DHT22;21729;58.392;15.656;2022-12-11T09:16:24;-4.90;99.90
35607;DHT22;21729;58.392;15.656;2022-12-11T09:18:53;-4.90;99.90
35607;DHT22;21729;58.392;15.656;2022-12-11T09:21:21;-5.00;99.90
35607;DHT22;21729;58.392;15.656;2022-12-11T09:23:52;-4.90;99.90
35607;DHT22;21729;58.392;15.656;2022-12-11T09:26:21;-4.90;99.90
35607;DHT22;21729;58.392;15.656;2022-12-11T09:28:49;-4.90;99.90
35607;DHT22;21729;58.392;15.656;2022-12-11T09:31:19;-4.80;99.90
35607;DHT22;21729;58.392;15.656;2022-12-11T09:33:48;-4.80;99.90
35607;DHT22;21729;58.392;15.656;2022-12-11T09:36:16;-4.80;99.90
35607;DHT22;21729;58.392;15.656;2022-12-11T09:38:43;-4.90;99.90
35607;DHT22;21729;58.392;15.656;2022-12-11T09:41:37;-4.90;99.90
35607;DHT22;21729;58.392;15.656;2022-12-11T09:44:18;-4.80;99.90
35607;DHT22;21729;58.392;15.656;2022-12-11T09:46:47;-4.90;99.90
35607;DHT22;21729;58.392;15.656;2022-12-11T09:49:27;-4.90;99.90
35607;DHT22;21729;58.392;15.656;2022-12-11T09:52:10;-4.80;99.90
35607;DHT22;21729;58.392;15.656;2022-12-11T09:54:43;-4.90;99.90
35607;DHT22;21729;58.392;15.656;2022-12-11T09:57:30;-5.00;99.90
35607;DHT22;21729;58.392;15.656;2022-12-11T10:00:11;-5.00;99.90
35607;DHT22;21729;58.392;15.656;2022-12-11T10:02:51;-4.90;99.90
35607;DHT22;21729;58.392;15.656;2022-12-11T10:05:28;-5.00;99.90
35607;DHT22;21729;58.392;15.656;2022-12-11T10:08:02;-4.90;99.90
35607;DHT22;21729;58.392;15.656;2022-12-11T10:10:40;-5.00;99.90
35607;DHT22;21729;58.392;15.656;2022-12-11T10:13:20;-5.00;99.90
35607;DHT22;21729;58.392;15.656;2022-12-11T10:15:56;-5.00;99.90
35607;DHT22;21729;58.392;15.656;2022-12-11T10:18:27;-4.90;99.90
35607;DHT22;21729;58.392;15.656;2022-12-11T10:21:00;-4.80;99.90
35607;DHT22;21729;58.392;15.656;2022-12-11T10:23:31;-4.80;99.90
35607;DHT22;21729;58.392;15.656;2022-12-11T10:26:04;-4.70;99.90
35607;DHT22;21729;58.392;15.656;2022-12-11T10:28:35;-4.80;99.90
35607;DHT22;21729;58.392;15.656;2022-12-11T10:31:09;-4.70;99.90
35607;DHT22;21729;58.392;15.656;2022-12-11T10:33:48;-4.60;99.90
35607;DHT22;21729;58.392;15.656;2022-12-11T10:36:24;-4.60;99.90
35607;DHT22;21729;58.392;15.656;2022-12-11T10:38:52;-4.60;99.90
35607;DHT22;21729;58.392;15.656;2022-12-11T10:41:21;-4.40;99.90
35607;DHT22;21729;58.392;15.656;2022-12-11T10:43:52;-4.70;99.90
35607;DHT22;21729;58.392;15.656;2022-12-11T10:46:21;-4.70;99.90
35607;DHT22;21729;58.392;15.656;2022-12-11T10:48:50;-4.60;99.90
35607;DHT22;21729;58.392;15.656;2022-12-11T10:51:21;-4.60;99.90
35607;DHT22;21729;58.392;15.656;2022-12-11T10:53:49;-4.70;99.90
35607;DHT22;21729;58.392;15.656;2022-12-11T10:56:24;-4.80;99.90
35607;DHT22;21729;58.392;15.656;2022-12-11T10:58:55;-4.70;99.90
35607;DHT22;21729;58.392;15.656;2022-12-11T11:01:26;-4.60;99.90
35607;DHT22;21729;58.392;15.656;2022-12-11T11:03:57;-4.50;99.90
35607;DHT22;21729;58.392;15.656;2022-12-11T11:06:24;-4.60;99.90
35607;DHT22;21729;58.392;15.656;2022-12-11T11:08:53;-4.70;99.90
35607;DHT22;21729;58.392;15.656;2022-12-11T11:11:26;-4.70;99.90
35607;DHT22;21729;58.392;15.656;2022-12-11T11:14:12;-4.60;99.90
35607;DHT22;21729;58.392;15.656;2022-12-11T11:16:41;-4.70;99.90
35607;DHT22;21729;58.392;15.656;2022-12-11T11:19:18;-4.60;99.90
35607;DHT22;21729;58.392;15.656;2022-12-11T11:21:49;-4.60;99.90
35607;DHT22;21729;58.392;15.656;2022-12-11T11:24:27;-4.60;99.90
35607;DHT22;21729;58.392;15.656;2022-12-11T11:26:55;-4.60;99.90
35607;DHT22;21729;58.392;15.656;2022-12-11T11:29:29;-4.60;99.90
35607;DHT22;21729;58.392;15.656;2022-12-11T11:32:12;-4.70;99.90
35607;DHT22;21729;58.392;15.656;2022-12-11T11:34:40;-4.50;99.90
35607;DHT22;21729;58.392;15.656;2022-12-11T11:37:23;-4.50;99.90
35607;DHT22;21729;58.392;15.656;2022-12-11T11:39:55;-4.40;99.90
35607;DHT22;21729;58.392;15.656;2022-12-11T11:42:32;-4.50;99.90
35607;DHT22;21729;58.392;15.656;2022-12-11T11:45:11;-4.40;99.90
35607;DHT22;21729;58.392;15.656;2022-12-11T11:47:47;-4.50;99.90
35607;DHT22;21729;58.392;15.656;2022-12-11T11:50:21;-4.60;99.90
35607;DHT22;21729;58.392;15.656;2022-12-11T11:52:54;-4.50;99.90
35607;DHT22;21729;58.392;15.656;2022-12-11T11:55:36;-4.60;99.90
35607;DHT22;21729;58.392;15.656;2022-12-11T11:58:08;-4.60;99.90
35607;DHT22;21729;58.392;15.656;2022-12-11T12:00:39;-4.50;99.90
35607;DHT22;21729;58.392;15.656;2022-12-11T12:03:11;-4.50;99.90
35607;DHT22;21729;58.392;15.656;2022-12-11T12:05:44;-4.40;99.90
35607;DHT22;21729;58.392;15.656;2022-12-11T12:08:25;-4.40;99.90
35607;DHT22;21729;58.392;15.656;2022-12-11T12:10:57;-4.50;99.90
35607;DHT22;21729;58.392;15.656;2022-12-11T12:13:31;-4.70;99.90
35607;DHT22;21729;58.392;15.656;2022-12-11T12:16:08;-4.70;99.90
35607;DHT22;21729;58.392;15.656;2022-12-11T12:18:44;-4.60;99.90
35607;DHT22;21729;58.392;15.656;2022-12-11T12:21:18;-4.50;99.90
35607;DHT22;21729;58.392;15.656;2022-12-11T12:24:04;-4.50;99.90
35607;DHT22;21729;58.392;15.656;2022-12-11T12:26:36;-4.50;99.90
35607;DHT22;21729;58.392;15.656;2022-12-11T12:29:15;-4.60;99.90
35607;DHT22;21729;58.392;15.656;2022-12-11T12:32:01;-4.70;99.90
35607;DHT22;21729;58.392;15.656;2022-12-11T12:34:42;-4.80;99.90
35607;DHT22;21729;58.392;15.656;2022-12-11T12:37:19;-4.80;99.90
35607;DHT22;21729;58.392;15.656;2022-12-11T12:39:57;-4.80;99.90
35607;DHT22;21729;58.392;15.656;2022-12-11T12:42:33;-4.80;99.90
35607;DHT22;21729;58.392;15.656;2022-12-11T12:45:14;-4.80;99.90
35607;DHT22;21729;58.392;15.656;2022-12-11T12:47:46;-4.90;99.90
35607;DHT22;21729;58.392;15.656;2022-12-11T12:50:16;-4.80;99.90
35607;DHT22;21729;58.392;15.656;2022-12-11T12:52:45;-4.80;99.90
35607;DHT22;21729;58.392;15.656;2022-12-11T12:55:18;-4.80;99.90
35607;DHT22;21729;58.392;15.656;2022-12-11T12:57:51;-4.70;99.90
35607;DHT22;21729;58.392;15.656;2022-12-11T13:00:27;-4.80;99.90
35607;DHT22;21729;58.392;15.656;2022-12-11T13:02:58;-4.60;99.90
35607;DHT22;21729;58.392;15.656;2022-12-11T13:05:27;-4.60;99.90
35607;DHT22;21729;58.392;15.656;2022-12-11T13:07:57;-4.60;99.90
35607;DHT22;21729;58.392;15.656;2022-12-11T13:10:28;-4.60;99.90
35607;DHT22;21729;58.392;15.656;2022-12-11T13:12:56;-4.60;99.90
35607;DHT22;21729;58.392;15.656;2022-12-11T13:15:30;-4.80;99.90
35607;DHT22;21729;58.392;15.656;2022-12-11T13:18:01;-4.80;99.90
35607;DHT22;21729;58.392;15.656;2022-12-11T13:20:30;-4.80;99.90
35607;DHT22;21729;58.392;15.656;2022-12-11T13:23:15;-4.80;99.90
35607;DHT22;21729;58.392;15.656;2022-12-11T13:25:49;-4.80;99.90
35607;DHT22;21729;58.392;15.656;2022-12-11T13:28:23;-4.80;99.90
35607;DHT22;21729;58.392;15.656;2022-12-11T13:31:02;-4.80;99.90
35607;DHT22;21729;58.392;15.656;2022-12-11T13:33:38;-4.80;99.90
35607;DHT22;21729;58.392;15.656;2022-12-11T13:36:26;-4.80;99.90
35607;DHT22;21729;58.392;15.656;2022-12-11T13:38:56;-4.80;99.90
35607;DHT22;21729;58.392;15.656;2022-12-11T13:41:24;-4.80;99.90
35607;DHT22;21729;58.392;15.656;2022-12-11T13:43:53;-4.90;99.90
35607;DHT22;21729;58.392;15.656;2022-12-11T13:46:24;-4.90;99.90
35607;DHT22;21729;58.392;15.656;2022-12-11T13:48:56;-4.90;99.90
35607;DHT22;21729;58.392;15.656;2022-12-11T13:51:28;-4.80;99.90
35607;DHT22;21729;58.392;15.656;2022-12-11T13:54:10;-4.80;99.90
35607;DHT22;21729;58.392;15.656;2022-12-11T13:56:39;-4.80;99.90
35607;DHT22;21729;58.392;15.656;2022-12-11T13:59:19;-4.90;99.90
35607;DHT22;21729;58.392;15.656;2022-12-11T14:01:52;-4.90;99.90
35607;DHT22;21729;58.392;15.656;2022-12-11T14:04:22;-4.80;99.90
35607;DHT22;21729;58.392;15.656;2022-12-11T14:06:51;-4.90;99.90
35607;DHT22;21729;58.392;15.656;2022-12-11T14:09:22;-4.90;99.90
35607;DHT22;21729;58.392;15.656;2022-12-11T14:11:51;-4.90;99.90
35607;DHT22;21729;58.392;15.656;2022-12-11T14:14:27;-4.90;99.90
35607;DHT22;21729;58.392;15.656;2022-12-11T14:16:56;-5.00;99.90
35607;DHT22;21729;58.392;15.656;2022-12-11T14:19:26;-4.90;99.90
35607;DHT22;21729;58.392;15.656;2022-12-11T14:21:58;-4.90;99.90
35607;DHT22;21729;58.392;15.656;2022-12-11T14:24:26;-5.00;99.90
35607;DHT22;21729;58.392;15.656;2022-12-11T14:26:54;-5.00;99.90
35607;DHT22;21729;58.392;15.656;2022-12-11T14:29:26;-5.10;99.90
35607;DHT22;21729;58.392;15.656;2022-12-11T14:31:56;-5.10;99.90
35607;DHT22;21729;58.392;15.656;2022-12-11T14:34:30;-5.20;99.90
35607;DHT22;21729;58.392;15.656;2022-12-11T14:37:01;-5.20;99.90
35607;DHT22;21729;58.392;15.656;2022-12-11T14:39:31;-5.10;99.90
35607;DHT22;21729;58.392;15.656;2022-12-11T14:42:02;-5.20;99.90
35607;DHT22;21729;58.392;15.656;2022-12-11T14:44:33;-5.30;99.90
35607;DHT22;21729;58.392;15.656;2022-12-11T14:47:03;-5.20;99.90
35607;DHT22;21729;58.392;15.656;2022-12-11T14:49:38;-5.30;99.90
35607;DHT22;21729;58.392;15.656;2022-12-11T14:52:14;-5.30;99.90
35607;DHT22;21729;58.392;15.656;2022-12-11T14:54:46;-5.30;99.90
35607;DHT22;21729;58.392;15.656;2022-12-11T14:57:18;-5.30;99.90
35607;DHT22;21729;58.392;15.656;2022-12-11T14:59:48;-5.30;99.90
35607;DHT22;21729;58.392;15.656;2022-12-11T15:02:23;-5.30;99.90
35607;DHT22;21729;58.392;15.656;2022-12-11T15:05:11;-5.30;99.90
35607;DHT22;21729;58.392;15.656;2022-12-11T15:07:40;-5.30;99.90
35607;DHT22;21729;58.392;15.656;2022-12-11T15:10:21;-5.20;99.90
35607;DHT22;21729;58.392;15.656;2022-12-11T15:12:51;-5.30;99.90
35607;DHT22;21729;58.392;15.656;2022-12-11T15:15:18;-5.30;99.90
35607;DHT22;21729;58.392;15.656;2022-12-11T15:17:47;-5.30;99.90
35607;DHT22;21729;58.392;15.656;2022-12-11T15:20:25;-5.30;99.90
35607;DHT22;21729;58.392;15.656;2022-12-11T15:22:54;-5.30;99.90
35607;DHT22;21729;58.392;15.656;2022-12-11T15:25:24;-5.30;99.90
35607;DHT22;21729;58.392;15.656;2022-12-11T15:27:54;-5.40;99.90
35607;DHT22;21729;58.392;15.656;2022-12-11T15:30:30;-5.40;99.90
35607;DHT22;21729;58.392;15.656;2022-12-11T15:33:18;-5.40;99.90
35607;DHT22;21729;58.392;15.656;2022-12-11T15:36:03;-5.40;99.90
35607;DHT22;21729;58.392;15.656;2022-12-11T15:38:35;-5.50;99.90